Time;durP1;ratioP1;P1;durP2;ratioP2;P2;SDS_P1;SDS_P2;PMS_P1;PMS_P2;Temp;Humidity;BMP_temperature;BMP_pressure;BME280_temperature;BME280_humidity;BME280_pressure;Samples;Min_cycle;Max_cycle;Signal;HPM_P1;HPM_P2
2022/01/08 00:50:54;;;;;;;16.95;7.13;;;;;;;-6.04;73.51;99571.34;6281790;22;20097;-85
2022/01/08 10:06:47;;;;;;;13.45;6.32;;;;;;;-1.95;69.08;99525.50;6286707;22;20054;-89
2022/01/08 10:28:13;;;;;;;12.13;5.70;;;;;;;-1.43;68.74;99539.56;6268595;22;20035;-90
2022/01/08 10:46:58;;;;;;;13.73;5.15;;;;;;;-0.63;68.37;99614.81;6295418;22;20090;-82
2022/01/08 10:53:22;;;;;;;11.93;4.45;;;;;;;-1.59;68.27;99422.09;6285259;22;20035;-87
2022/01/08 10:56:22;;;;;;;12.27;5.45;;;;;;;-0.95;67.80;99514.91;6225680;22;20015;-88
2022/01/08 10:58:55;;;;;;;12.55;5.65;;;;;;;-1.13;67.65;99464.94;6254703;22;20019;-90
2022/01/08 11:01:58;;;;;;;11.38;5.00;;;;;;;-0.31;67.26;99578.53;6254185;22;20428;-90
2022/01/08 11:04:46;;;;;;;9.98;4.55;;;;;;;-0.30;66.93;99581.09;6273701;22;20012;-89
2022/01/08 11:07:20;;;;;;;9.30;4.75;;;;;;;-1.00;66.70;99444.59;6302584;22;20000;-88
2022/01/08 11:10:20;;;;;;;11.48;5.28;;;;;;;-1.12;66.24;99426.56;6260206;22;20020;-90
2022/01/08 11:20:04;;;;;;;10.35;5.47;;;;;;;-0.25;65.00;99547.03;6278764;22;20037;-89
2022/01/08 11:22:41;;;;;;;10.25;4.70;;;;;;;-0.96;64.58;99428.06;6225216;22;20042;-90
2022/01/08 11:31:43;;;;;;;11.52;5.60;;;;;;;-0.52;64.51;99457.34;6290971;22;20080;-87
2022/01/08 11:59:33;;;;;;;12.93;5.22;;;;;;;0.11;63.64;99499.09;6289389;22;20050;-90
2022/01/08 12:02:13;;;;;;;10.35;4.72;;;;;;;-0.24;63.92;99450.94;6258883;22;20030;-88
2022/01/08 12:04:54;;;;;;;11.85;5.10;;;;;;;-0.02;63.05;99503.63;6251142;22;20016;-90
2022/01/08 12:07:36;;;;;;;12.07;4.82;;;;;;;-0.25;63.03;99464.31;6259260;22;20094;-89
2022/01/08 12:10:22;;;;;;;11.68;5.82;;;;;;;-0.14;62.91;99477.22;6200278;22;20019;-91
2022/01/08 12:12:59;;;;;;;10.35;5.38;;;;;;;-0.56;62.12;99393.75;6250234;22;20022;-91
2022/01/08 12:15:49;;;;;;;12.23;6.13;;;;;;;0.05;62.01;99493.84;6250664;22;20024;-92
2022/01/08 12:18:27;;;;;;;11.85;5.75;;;;;;;-0.14;61.84;99463.03;6250789;22;20075;-91
2022/01/08 12:21:05;;;;;;;11.38;5.60;;;;;;;-0.02;61.79;99468.53;6250418;22;20042;-91
2022/01/08 12:23:44;;;;;;;13.75;5.15;;;;;;;0.10;61.63;99482.34;6250165;22;20030;-91
2022/01/08 12:30:38;;;;;;;8.25;4.20;;;;;;;-0.22;61.98;99400.88;6281598;22;20027;-89
2022/01/08 12:33:24;;;;;;;10.00;4.25;;;;;;;-0.36;61.89;99360.25;6244554;23;20095;-92
2022/01/08 12:36:33;;;;;;;12.55;5.22;;;;;;;0.32;62.14;99477.28;6220056;23;20022;-90
2022/01/08 12:39:09;;;;;;;11.85;4.93;;;;;;;0.35;62.15;99469.88;6221431;23;20023;-91
2022/01/08 12:41:42;;;;;;;9.35;3.97;;;;;;;0.38;61.36;99475.00;6246251;23;20035;-90
2022/01/08 12:44:27;;;;;;;9.73;4.68;;;;;;;0.46;61.93;99468.59;6220790;23;20020;-90
2022/01/08 12:47:05;;;;;;;9.07;4.63;;;;;;;0.28;61.65;99425.28;6246304;23;20441;-90
2022/01/08 12:49:38;;;;;;;9.02;4.53;;;;;;;0.41;61.66;99429.91;6220966;23;20455;-91
2022/01/08 12:52:17;;;;;;;8.20;4.72;;;;;;;0.21;61.64;99400.78;6221154;23;20095;-90
2022/01/08 12:54:54;;;;;;;10.65;5.15;;;;;;;0.57;61.78;99468.19;6220968;23;20026;-90
2022/01/08 12:57:32;;;;;;;8.90;4.20;;;;;;;0.64;61.60;99454.19;6221078;23;20020;-90
2022/01/08 13:00:06;;;;;;;13.50;5.15;;;;;;;0.58;61.57;99443.91;6221030;23;20012;-92
2022/01/08 13:02:48;;;;;;;10.80;5.20;;;;;;;0.28;61.41;99390.16;6221360;23;20020;-92
2022/01/08 13:05:22;;;;;;;8.63;4.40;;;;;;;0.44;61.13;99420.00;6251474;22;20043;-92
2022/01/08 13:07:55;;;;;;;11.82;5.13;;;;;;;0.15;60.61;99388.88;6252103;22;20023;-91
2022/01/08 13:10:33;;;;;;;8.88;4.85;;;;;;;0.43;61.11;99439.22;6226694;22;20020;-89
2022/01/08 13:13:06;;;;;;;9.52;4.18;;;;;;;0.49;60.65;99444.47;6278644;22;20042;-91
2022/01/08 13:15:40;;;;;;;9.57;4.78;;;;;;;0.34;60.48;99443.06;6251729;22;20054;-90
2022/01/08 13:18:24;;;;;;;8.05;4.13;;;;;;;0.36;60.52;99446.50;6252076;22;20028;-92
2022/01/08 13:21:05;;;;;;;8.27;4.05;;;;;;;0.44;60.13;99442.59;6278692;22;20103;-92
2022/01/08 13:23:45;;;;;;;10.57;4.45;;;;;;;0.48;60.74;99456.97;6251939;22;20020;-92
2022/01/08 13:26:35;;;;;;;7.20;4.22;;;;;;;0.47;60.59;99440.19;6278500;22;20020;-92
2022/01/08 13:29:30;;;;;;;10.30;3.80;;;;;;;0.40;60.54;99419.06;6251615;22;20034;-93
2022/01/08 13:32:06;;;;;;;10.35;4.32;;;;;;;0.28;60.71;99402.69;6252041;22;20107;-90
2022/01/08 13:34:41;;;;;;;10.80;4.72;;;;;;;0.40;60.99;99428.22;6278649;22;20447;-90
2022/01/08 13:37:16;;;;;;;12.45;5.65;;;;;;;0.33;61.27;99406.22;6279019;22;20478;-90
2022/01/08 13:39:51;;;;;;;10.75;4.65;;;;;;;0.14;60.33;99383.81;6251579;22;20078;-89
2022/01/08 13:42:30;;;;;;;10.27;4.55;;;;;;;0.42;60.79;99416.59;6201281;22;20015;-90
2022/01/08 13:45:11;;;;;;;9.27;4.93;;;;;;;0.07;60.33;99352.63;6227887;22;20016;-90
2022/01/08 13:47:47;;;;;;;12.02;5.07;;;;;;;-0.57;60.58;99231.66;6251340;22;20030;-90
2022/01/08 13:50:23;;;;;;;11.15;5.38;;;;;;;0.34;61.05;99377.81;6251624;22;20024;-89
2022/01/08 13:53:01;;;;;;;10.00;4.88;;;;;;;0.13;60.37;99367.03;6226336;22;20073;-90
2022/01/08 13:55:37;;;;;;;13.15;5.15;;;;;;;0.43;60.42;99418.31;6252847;22;20431;-89
2022/01/08 14:02:13;;;;;;;9.43;5.63;;;;;;;0.46;60.65;99414.22;6278440;22;20028;-90
2022/01/08 14:05:17;;;;;;;12.30;5.63;;;;;;;0.47;60.56;99407.56;6238985;22;20050;-91
2022/01/08 14:07:52;;;;;;;11.40;4.97;;;;;;;0.47;60.57;99405.91;6226087;22;20035;-91
2022/01/08 14:10:24;;;;;;;12.05;4.88;;;;;;;0.35;60.99;99392.94;6251723;22;20020;-91
2022/01/08 14:13:07;;;;;;;11.15;5.40;;;;;;;0.12;61.01;99360.31;6226571;22;20027;-91
2022/01/08 14:15:42;;;;;;;13.60;5.78;;;;;;;0.47;61.53;99415.09;6251542;22;20019;-91
2022/01/08 14:18:31;;;;;;;9.48;5.43;;;;;;;0.51;61.45;99401.84;6251723;22;20023;-90
2022/01/08 14:29:05;;;;;;;10.18;4.72;;;;;;;-1.18;62.08;99162.66;6282396;22;20062;-91
2022/01/08 14:31:41;;;;;;;9.65;4.85;;;;;;;-0.05;62.20;99358.06;6180034;22;20015;-91
2022/01/08 14:34:20;;;;;;;14.75;5.20;;;;;;;-0.19;62.77;99319.09;6250754;22;20020;-91
2022/01/08 14:37:01;;;;;;;8.02;4.78;;;;;;;-0.55;63.34;99257.63;6250911;22;20086;-90
2022/01/08 14:39:45;;;;;;;8.75;4.40;;;;;;;-0.14;62.86;99332.66;6277489;22;20015;-88
2022/01/08 14:42:28;;;;;;;9.75;4.97;;;;;;;-0.44;63.06;99265.53;6225966;22;20022;-90
2022/01/08 14:45:09;;;;;;;11.10;5.30;;;;;;;0.08;63.28;99354.34;6250712;22;20074;-90
2022/01/08 14:47:45;;;;;;;12.27;5.93;;;;;;;0.30;63.45;99386.03;6251171;22;20562;-90
2022/01/08 14:50:25;;;;;;;10.93;5.75;;;;;;;0.28;63.17;99382.63;6277730;22;20020;-89
2022/01/08 14:53:20;;;;;;;13.30;6.70;;;;;;;0.24;63.52;99378.31;6250968;22;20070;-89
2022/01/08 15:00:21;;;;;;;;;;;;;;;0.02;64.22;99374.19;6295676;22;20024;-87
2022/01/08 15:13:40;;;;;;;9.57;4.80;;;;;;;-1.77;66.50;99161.22;6250714;23;20027;-90
2022/01/08 15:36:36;;;;;;;13.48;5.45;;;;;;;-0.96;68.42;99347.94;6283195;22;20101;-91
2022/01/08 16:18:06;;;;;;;13.15;6.35;;;;;;;-1.11;69.41;99239.69;6289064;22;20022;-87
2022/01/08 16:20:39;;;;;;;14.07;6.90;;;;;;;-0.65;69.11;99305.72;6252574;22;20016;-89
2022/01/08 16:26:52;;;;;;;14.43;6.10;;;;;;;-1.05;69.31;99227.38;6277930;22;20020;-91
2022/01/08 16:29:27;;;;;;;12.38;6.72;;;;;;;-0.41;69.48;99331.69;6203015;22;20366;-89
2022/01/08 16:36:36;;;;;;;13.80;6.25;;;;;;;-0.36;69.39;99334.34;6277341;22;20070;-91
2022/01/08 16:39:17;;;;;;;12.95;6.82;;;;;;;-0.64;69.36;99281.50;6252882;22;20019;-92
2022/01/08 16:41:47;;;;;;;18.20;7.60;;;;;;;-0.30;69.90;99330.41;6280819;22;20026;-91
2022/01/08 16:44:18;;;;;;;13.52;7.68;;;;;;;-0.43;70.32;99298.16;6253242;22;20066;-92
2022/01/08 16:46:52;;;;;;;17.73;8.50;;;;;;;-0.60;69.95;99273.31;6152776;22;20047;-92
2022/01/08 16:49:23;;;;;;;18.50;8.73;;;;;;;-0.61;69.79;99277.47;6280298;22;20329;-92
2022/01/08 16:56:32;;;;;;;14.23;6.83;;;;;;;-0.93;70.91;99251.22;6290834;22;20054;-86
2022/01/08 16:59:10;;;;;;;12.80;5.60;;;;;;;-0.65;70.81;99310.72;6256016;22;20022;-87
2022/01/08 17:01:48;;;;;;;13.65;6.38;;;;;;;-0.91;70.69;99266.34;6251824;22;20474;-89
2022/01/08 17:04:34;;;;;;;13.02;6.82;;;;;;;-0.43;71.35;99335.75;6227248;22;20016;-90
2022/01/08 17:07:07;;;;;;;16.02;7.60;;;;;;;-0.80;71.47;99270.06;6186815;23;20044;-93
2022/01/08 17:09:53;;;;;;;16.27;6.78;;;;;;;-0.47;71.53;99308.88;6161596;23;20028;-92
2022/01/08 17:24:09;;;;;;;13.52;6.50;;;;;;;-2.05;72.65;99038.47;6283448;22;20014;-86
2022/01/08 17:27:38;;;;;;;16.55;6.18;;;;;;;-1.36;72.49;99130.28;6269629;22;20382;-92
2022/01/08 17:30:09;;;;;;;16.58;7.00;;;;;;;-0.33;72.09;99285.16;6252592;22;20075;-92
2022/01/08 17:32:42;;;;;;;15.70;7.03;;;;;;;-1.62;72.34;99059.28;6252320;22;20095;-93
2022/01/08 17:35:15;;;;;;;14.88;7.72;;;;;;;-0.29;72.21;99281.97;6251534;22;20077;-93
2022/01/08 17:37:49;;;;;;;16.25;7.38;;;;;;;-1.07;71.91;99133.84;6251806;22;20023;-93
2022/01/08 17:40:22;;;;;;;17.58;7.55;;;;;;;-0.22;71.88;99268.88;6251453;22;20023;-93
2022/01/08 17:42:59;;;;;;;14.07;7.25;;;;;;;-0.17;72.32;99276.56;6278462;22;20027;-91
2022/01/08 17:45:29;;;;;;;15.90;7.50;;;;;;;-0.58;71.58;99197.41;6225972;22;20024;-93
2022/01/08 17:48:25;;;;;;;15.85;7.40;;;;;;;-0.32;71.40;99241.78;6275350;22;20482;-92
2022/01/08 17:50:56;;;;;;;26.02;10.25;;;;;;;-0.29;71.96;99244.34;6227835;22;20329;-91
2022/01/08 17:53:29;;;;;;;19.67;8.45;;;;;;;-0.65;71.81;99175.44;6185282;23;20020;-93
2022/01/08 17:56:02;;;;;;;29.45;11.95;;;;;;;-0.37;71.35;99227.38;6136545;23;20028;-90
2022/01/08 18:02:15;;;;;;;18.83;7.70;;;;;;;-0.14;71.77;99262.44;6280727;22;20424;-92
2022/01/08 18:05:03;;;;;;;18.48;7.78;;;;;;;-0.41;71.50;99226.41;6277926;22;20351;-92
2022/01/08 18:07:35;;;;;;;19.35;7.78;;;;;;;-0.13;71.67;99268.31;6251582;22;20020;-92
2022/01/08 18:10:13;;;;;;;19.20;7.20;;;;;;;-0.24;71.20;99235.34;6226406;22;20451;-92
2022/01/08 18:12:43;;;;;;;20.83;7.70;;;;;;;-0.11;71.33;99257.53;6225677;22;20050;-92
2022/01/08 18:15:15;;;;;;;16.85;6.97;;;;;;;-0.11;70.98;99261.69;6226491;22;20019;-92
2022/01/08 18:17:53;;;;;;;13.65;6.97;;;;;;;-0.24;71.11;99220.31;6251093;22;20094;-92
2022/01/08 18:20:26;;;;;;;15.23;6.32;;;;;;;-0.42;71.20;99204.66;6226322;22;20023;-92
2022/01/08 18:22:56;;;;;;;14.30;7.25;;;;;;;-0.89;71.18;99114.47;6277660;22;20074;-91
2022/01/08 18:25:27;;;;;;;15.43;7.22;;;;;;;-0.46;71.71;99192.81;6251319;22;20023;-89
2022/01/08 18:28:00;;;;;;;15.07;6.55;;;;;;;-0.13;71.17;99248.25;6252057;22;20019;-92
2022/01/08 18:30:31;;;;;;;14.27;6.95;;;;;;;-0.68;71.23;99151.13;6225688;22;20031;-92
2022/01/08 18:36:15;;;;;;;12.98;6.45;;;;;;;-0.08;71.29;99237.59;6113056;23;20025;-91
2022/01/08 18:38:45;;;;;;;13.25;6.82;;;;;;;-0.54;70.52;99164.13;6155312;23;20017;-92
2022/01/08 18:41:16;;;;;;;14.90;6.47;;;;;;;-0.43;70.45;99170.34;6156100;23;20018;-92
2022/01/08 18:43:47;;;;;;;14.00;7.35;;;;;;;0.03;70.86;99239.59;6130710;23;20021;-91
2022/01/08 18:46:23;;;;;;;13.60;6.85;;;;;;;-0.92;70.73;99079.31;6106807;23;20028;-91
2022/01/08 18:49:15;;;;;;;15.82;6.68;;;;;;;0.00;71.08;99226.16;6154800;23;20353;-92
2022/01/08 18:51:48;;;;;;;12.82;6.45;;;;;;;-0.86;70.96;99077.84;6082627;23;20014;-92
2022/01/08 18:54:18;;;;;;;14.50;7.22;;;;;;;-0.13;71.10;99206.50;6106392;23;20021;-91
2022/01/08 18:56:49;;;;;;;16.15;7.05;;;;;;;0.04;70.85;99241.31;6147577;22;20020;-88
2022/01/08 18:59:20;;;;;;;15.68;7.68;;;;;;;-0.09;71.17;99212.44;6220259;23;20063;-89
2022/01/08 19:01:52;;;;;;;19.85;8.38;;;;;;;-0.24;71.46;99195.22;6197879;23;20205;-88
2022/01/08 19:04:25;;;;;;;18.73;7.82;;;;;;;-0.42;71.73;99164.56;6220736;23;20463;-90
2022/01/08 19:06:56;;;;;;;18.85;7.85;;;;;;;-0.19;71.14;99210.44;6220962;23;20095;-89
2022/01/08 19:09:30;;;;;;;18.40;6.97;;;;;;;-0.45;71.54;99171.97;6197136;23;20012;-88
2022/01/08 19:12:08;;;;;;;17.48;7.30;;;;;;;-0.40;71.27;99160.44;6195191;23;20020;-89
2022/01/08 19:14:40;;;;;;;16.92;7.93;;;;;;;-0.26;71.32;99184.31;6170408;23;20023;-88
2022/01/08 19:17:11;;;;;;;15.82;8.20;;;;;;;-0.03;71.91;99228.59;6195889;23;20016;-89
2022/01/08 19:20:12;;;;;;;18.33;8.50;;;;;;;-0.03;71.75;99227.72;6220653;23;20462;-88
2022/01/08 19:22:43;;;;;;;20.63;9.18;;;;;;;-1.15;71.54;99040.94;6246693;23;20448;-89
2022/01/08 19:25:13;;;;;;;22.17;8.48;;;;;;;-0.10;72.01;99216.59;6219955;23;20028;-89
2022/01/08 19:27:51;;;;;;;19.00;9.48;;;;;;;-0.63;72.10;99137.91;6220115;23;20069;-89
2022/01/08 19:30:40;;;;;;;21.73;9.35;;;;;;;-0.86;71.99;99092.03;6246817;23;20066;-89
2022/01/08 19:33:10;;;;;;;23.00;9.27;;;;;;;-0.30;72.01;99175.00;6195553;23;20052;-89
2022/01/08 19:36:11;;;;;;;24.00;9.57;;;;;;;-1.11;71.99;99031.91;6246702;23;20033;-89
2022/01/08 19:38:48;;;;;;;23.02;8.48;;;;;;;0.02;72.17;99222.84;6243574;23;20099;-89
2022/01/08 19:41:19;;;;;;;15.32;7.00;;;;;;;-0.03;72.07;99213.53;6246709;23;20095;-89
2022/01/08 19:44:01;;;;;;;15.25;7.50;;;;;;;-0.34;72.65;99165.69;6171590;23;20095;-87
2022/01/08 19:54:36;;;;;;;17.30;6.65;;;;;;;-0.24;73.14;99200.25;6276737;22;20079;-84
2022/01/08 19:57:25;;;;;;;17.92;7.95;;;;;;;-0.11;73.81;99199.03;6252192;22;20383;-89
2022/01/08 19:59:59;;;;;;;22.48;8.18;;;;;;;-0.43;73.37;99142.78;6235594;22;20019;-89
2022/01/08 20:02:30;;;;;;;19.52;8.88;;;;;;;-0.38;74.24;99148.81;6252509;22;20447;-89
2022/01/08 20:05:23;;;;;;;19.63;8.63;;;;;;;-0.58;74.24;99114.72;6279253;22;20023;-89
2022/01/08 20:07:55;;;;;;;17.80;8.73;;;;;;;-0.10;74.44;99194.03;6252308;22;20031;-89
2022/01/08 20:10:27;;;;;;;21.92;9.38;;;;;;;-1.09;74.32;99035.31;6252958;22;20114;-89
2022/01/08 20:13:19;;;;;;;23.38;9.43;;;;;;;-0.99;74.35;99049.84;6288254;22;20019;-85
2022/01/08 20:19:24;;;;;;;19.60;8.77;;;;;;;-0.55;74.79;99121.50;6291011;22;20023;-86
2022/01/08 20:21:56;;;;;;;22.65;9.30;;;;;;;-0.17;74.59;99187.13;6252068;22;20019;-89
2022/01/08 20:28:34;;;;;;;22.83;8.77;;;;;;;-1.36;74.88;98990.16;6227213;22;20061;-88
2022/01/08 20:31:10;;;;;;;21.48;9.70;;;;;;;-0.23;75.01;99166.88;6280682;22;20020;-90
2022/01/08 20:33:42;;;;;;;23.63;10.38;;;;;;;-0.80;74.88;99054.69;6227587;22;20020;-92
2022/01/08 20:36:12;;;;;;;23.30;10.13;;;;;;;-0.35;74.92;99118.84;6250306;22;20038;-90
2022/01/08 20:38:42;;;;;;;21.30;8.50;;;;;;;-0.45;75.04;99105.94;6251329;22;20110;-92
2022/01/08 20:41:13;;;;;;;20.08;9.95;;;;;;;-0.23;74.86;99140.94;6281214;22;20016;-90
2022/01/08 20:43:47;;;;;;;23.80;11.50;;;;;;;-0.96;74.97;99017.41;6236886;22;20015;-90
2022/01/08 20:46:17;;;;;;;22.70;10.80;;;;;;;-0.57;75.31;99073.81;6225703;22;20035;-92
2022/01/08 20:48:48;;;;;;;20.60;9.85;;;;;;;-0.15;74.84;99132.03;6251690;22;20024;-92
2022/01/08 20:51:18;;;;;;;21.35;10.90;;;;;;;-0.69;74.93;99045.84;6224479;22;20069;-91
2022/01/08 20:53:49;;;;;;;25.90;10.80;;;;;;;-0.17;75.26;99129.44;6252218;22;20020;-91
2022/01/08 20:56:34;;;;;;;22.67;11.52;;;;;;;-0.27;74.93;99094.88;6199470;22;20024;-91
2022/01/08 20:59:06;;;;;;;23.48;10.60;;;;;;;-1.46;74.00;98883.06;6226339;22;20031;-93
2022/01/08 21:01:36;;;;;;;25.25;11.02;;;;;;;-0.03;74.35;99124.91;6226450;22;20106;-93
2022/01/08 21:04:09;;;;;;;24.45;11.30;;;;;;;-0.26;74.20;99090.69;6251829;22;20095;-88
2022/01/08 21:09:48;;;;;;;23.00;10.68;;;;;;;-0.73;74.67;99031.53;6269315;22;20023;-89
2022/01/08 21:12:19;;;;;;;20.80;11.13;;;;;;;-0.22;74.88;99118.44;6259011;22;20103;-88
2022/01/08 21:18:14;;;;;;;18.13;8.23;;;;;;;-0.40;74.61;99067.72;6279028;22;20024;-91
2022/01/08 21:28:30;;;;;;;19.45;8.65;;;;;;;-0.40;74.45;99051.81;6284028;22;20106;-84
2022/01/08 21:42:50;;;;;;;19.10;8.73;;;;;;;-0.21;75.08;99070.00;6226178;23;20031;-92
2022/01/08 21:45:20;;;;;;;22.13;10.65;;;;;;;-0.39;74.89;99019.31;6217636;23;20504;-93
2022/01/08 21:47:52;;;;;;;20.48;9.80;;;;;;;-0.16;75.32;99058.47;6190805;23;20040;-92
2022/01/08 21:50:22;;;;;;;22.15;10.45;;;;;;;-0.48;75.45;99008.13;6175286;23;20003;-89
2022/01/08 21:52:53;;;;;;;22.70;9.95;;;;;;;-0.38;76.16;99036.03;6194740;23;20044;-87
2022/01/08 22:08:06;;;;;;;18.90;8.57;;;;;;;-0.37;76.44;99036.88;6292301;22;20026;-88
2022/01/08 22:10:36;;;;;;;18.45;9.23;;;;;;;-0.33;76.57;99034.50;6280664;22;20046;-91
2022/01/08 22:13:04;;;;;;;21.52;9.70;;;;;;;-0.56;76.57;98984.47;6277203;22;20031;-92
2022/01/08 22:15:34;;;;;;;21.25;10.07;;;;;;;-0.28;76.67;99029.66;6250591;22;20027;-92
2022/01/08 22:18:03;;;;;;;21.80;10.45;;;;;;;-0.26;76.43;99025.53;6250486;22;20324;-92
2022/01/08 22:20:36;;;;;;;21.50;9.77;;;;;;;-0.37;76.65;99002.66;6250771;22;20026;-93
2022/01/08 22:23:07;;;;;;;19.60;10.40;;;;;;;-0.48;76.35;98981.41;6277656;22;20022;-92
2022/01/08 22:25:38;;;;;;;24.27;10.70;;;;;;;-0.25;76.11;99013.06;6199219;22;20026;-89
2022/01/08 22:28:08;;;;;;;25.48;11.40;;;;;;;-0.14;76.83;99019.25;6250490;22;20022;-92
2022/01/08 22:30:39;;;;;;;22.00;10.70;;;;;;;-0.29;76.67;98990.38;6248997;22;20043;-91
2022/01/08 22:33:16;;;;;;;24.40;11.18;;;;;;;-0.44;76.52;98970.69;6226172;22;20020;-91
2022/01/08 22:35:47;;;;;;;25.08;11.00;;;;;;;-0.19;76.28;99003.19;6248351;22;20326;-92
2022/01/08 22:43:02;;;;;;;19.88;9.52;;;;;;;-0.74;76.69;98902.09;6229541;23;20028;-87
2022/01/08 22:45:32;;;;;;;28.65;11.38;;;;;;;-0.23;76.60;98983.88;6215162;23;20020;-87
2022/01/08 22:48:05;;;;;;;21.80;11.63;;;;;;;-0.74;76.63;98889.56;6165495;23;20029;-89
2022/01/08 22:50:36;;;;;;;21.73;10.30;;;;;;;-1.39;76.08;98780.72;6138549;23;20459;-88
2022/01/08 22:56:02;;;;;;;22.42;10.02;;;;;;;-0.90;76.30;98847.34;6191180;23;20434;-90
2022/01/08 22:58:39;;;;;;;25.85;10.48;;;;;;;-0.16;76.67;98977.38;6189657;23;20027;-88
2022/01/08 23:01:14;;;;;;;19.80;10.45;;;;;;;-0.58;76.54;98891.75;6191323;23;20031;-90
2022/01/08 23:03:48;;;;;;;22.23;10.27;;;;;;;-0.13;76.28;98960.78;6166122;23;20024;-89
2022/01/08 23:06:25;;;;;;;26.80;11.35;;;;;;;-0.36;76.39;98913.28;6143246;23;20445;-90
2022/01/08 23:09:01;;;;;;;28.08;11.60;;;;;;;-0.87;76.24;98828.25;6165483;23;20020;-90
2022/01/08 23:11:35;;;;;;;32.58;13.75;;;;;;;-0.09;76.39;98960.06;6166288;23;20024;-90
2022/01/08 23:14:12;;;;;;;34.25;13.77;;;;;;;-0.07;76.40;98953.41;6190479;23;20333;-90
2022/01/08 23:16:54;;;;;;;29.73;13.50;;;;;;;-1.61;76.79;98703.31;6141890;23;20070;-86
2022/01/08 23:19:27;;;;;;;28.67;13.57;;;;;;;-0.55;76.39;98878.47;6225626;23;20043;-86
2022/01/08 23:21:57;;;;;;;36.22;13.30;;;;;;;-0.52;76.57;98881.91;6166180;23;20040;-86
2022/01/08 23:24:47;;;;;;;29.17;11.95;;;;;;;-0.21;76.64;98938.78;6165241;23;20025;-89
2022/01/08 23:27:17;;;;;;;28.83;11.93;;;;;;;-0.18;76.69;98932.22;6216410;23;20021;-89
2022/01/08 23:30:13;;;;;;;27.67;10.85;;;;;;;-0.16;76.50;98929.75;6162830;23;20332;-87
2022/01/08 23:32:44;;;;;;;28.23;12.35;;;;;;;-0.15;76.59;98923.94;6117400;23;20017;-87
2022/01/08 23:43:09;;;;;;;24.20;10.73;;;;;;;-1.07;76.52;98753.34;6155839;23;20157;-89
2022/01/08 23:50:04;;;;;;;29.33;10.15;;;;;;;-0.48;76.83;98848.59;6281068;22;20054;-85
2022/01/08 23:53:08;;;;;;;25.48;10.20;;;;;;;-0.42;76.79;98858.81;6166634;23;20080;-89
2022/01/08 23:55:40;;;;;;;26.30;10.35;;;;;;;-0.30;76.62;98863.31;6134924;23;20029;-89
2022/01/08 23:58:11;;;;;;;33.13;11.00;;;;;;;-1.42;76.55;98675.56;6017289;23;20112;-89
